< < Back
Terminal Aerodrome Forecast


Current Version              Previous Versions:   1  2  3  4  5  6  7  8  9  

Terminal Aerodrome Forecast

542
FTUS42 KTAE 281100
TAFVLD
TAF
KVLD 281120Z 2812/0112 05008KT P6SM VCSH OVC025
     FM281400 05010KT 5SM SHRA BR OVC015
     FM282200 05010KT P6SM FEW007 OVC015
     FM010200 05009KT P6SM OVC007
     FM010800 04007KT 4SM BR OVC003=



Latest METAR

978
SAUS70 KWBC 281500 RRD
MTRVLD
METAR KVLD 281453Z 04009KT 1 1/2SM RA BR OVC006 08/07 A3046 RMK AO2
RAB35 SLP325 P0003 60005 T00830072 51019


USA.gov is the U.S. government's official web portal to all federal, state and local government web resources and services.